Terminal Aerodrome Forecast
Issued by NWS

Home | Current Version | Previous Version | Text Only | Print | Product List | Glossary On
Versions: 1 2 3 4 5 6 7 8 9 10 11 12 13 14 15 16 17 18 19 20 21 22 23
000
FTAK31 PAJN 160500 AAA
TAFAJN
TAF AMD
PAJN 160555Z 1606/1706 09008KT P6SM VCSH FEW060 BKN100 OVC200
     FM160900 00000KT P6SM BCFG VCSH SCT005 OVC060
     FM161800 VRB03KT P6SM SCT025 BKN100
     FM162100 24005KT P6SM BKN100
     FM170200 VRB03KT P6SM BKN100=

USA.gov is the U.S. government's official web portal to all federal, state and local government web resources and services.